Time,TemperatureF,DewpointF,PressureIn,WindDirection,WindDirectionDegrees,WindSpeedMPH,WindSpeedGustMPH,Humidity,HourlyPrecipIn,Conditions,Clouds,dailyrainin,SoftwareType,DateUTC
2013-09-03 00:02:00,72.1,51.9,29.90,North,0,0.0,0.0,49,0.00,CLR,,0.00,WeatherDisplay:10.37,2013-09-03 05:02:00,
2013-09-03 00:07:00,72.1,51.9,29.90,North,0,0.0,0.0,49,0.00,CLR,,0.00,WeatherDisplay:10.37,2013-09-03 05:07:00,
2013-09-03 00:12:00,72.1,51.9,29.90,North,0,0.0,0.0,49,0.00,CLR,,0.00,WeatherDisplay:10.37,2013-09-03 05:12:00,
2013-09-03 00:17:00,72.1,51.9,29.93,North,0,0.0,0.0,49,0.00,CLR,,0.00,WeatherDisplay:10.37,2013-09-03 05:17:00,
2013-09-03 00:22:00,72.3,52.1,29.93,North,0,0.0,0.0,49,0.00,CLR,,0.00,WeatherDisplay:10.37,2013-09-03 05:22:00,
2013-09-03 00:27:00,72.3,52.1,29.93,North,0,0.0,0.0,49,0.00,CLR,,0.00,WeatherDisplay:10.37,2013-09-03 05:27:00,
2013-09-03 00:32:00,72.1,51.9,29.93,North,0,0.0,0.0,49,0.00,CLR,,0.00,WeatherDisplay:10.37,2013-09-03 05:32:00,
2013-09-03 00:37:00,72.0,51.8,29.93,North,0,0.0,0.0,49,0.00,CLR,,0.00,WeatherDisplay:10.37,2013-09-03 05:37:00,
2013-09-03 00:42:00,72.0,52.3,29.93,North,0,0.0,0.0,50,0.00,CLR,,0.00,WeatherDisplay:10.37,2013-09-03 05:42:00,
2013-09-03 00:47:00,71.6,51.4,29.93,NNE,18,0.0,0.0,49,0.00,CLR,,0.00,WeatherDisplay:10.37,2013-09-03 05:47:00,
2013-09-03 00:52:00,71.6,51.4,29.93,NNE,14,2.2,3.5,49,0.00,CLR,,0.00,WeatherDisplay:10.37,2013-09-03 05:52:00,
2013-09-03 00:57:00,71.8,51.6,29.93,NNE,15,0.0,0.0,49,0.00,CLR,,0.00,WeatherDisplay:10.37,2013-09-03 05:57:00,
2013-09-03 01:02:00,72.0,51.8,29.93,North,357,2.2,2.3,49,0.00,CLR,,0.00,WeatherDisplay:10.37,2013-09-03 06:02:00,
2013-09-03 01:07:00,72.0,51.2,29.93,NNE,23,2.7,3.5,48,0.00,CLR,,0.00,WeatherDisplay:10.37,2013-09-03 06:07:00,
2013-09-03 01:12:00,71.8,51.0,29.93,NNE,26,3.1,3.5,48,0.00,CLR,,0.00,WeatherDisplay:10.37,2013-09-03 06:12:00,
2013-09-03 01:17:00,71.8,51.6,29.93,NNE,12,0.0,2.7,49,0.00,CLR,,0.00,WeatherDisplay:10.37,2013-09-03 06:17:00,
2013-09-03 01:22:00,71.6,51.4,29.93,North,7,0.0,0.0,49,0.00,CLR,,0.00,WeatherDisplay:10.37,2013-09-03 06:22:00,
2013-09-03 01:27:00,71.4,51.3,29.93,North,0,0.0,3.5,49,0.00,CLR,,0.00,WeatherDisplay:10.37,2013-09-03 06:27:00,
2013-09-03 01:32:00,71.4,51.8,29.93,North,0,0.0,0.0,50,0.00,CLR,,0.00,WeatherDisplay:10.37,2013-09-03 06:32:00,
2013-09-03 01:37:00,71.2,51.6,29.93,North,0,0.0,0.0,50,0.00,CLR,,0.00,WeatherDisplay:10.37,2013-09-03 06:37:00,
2013-09-03 01:42:00,71.1,51.5,29.93,NNE,29,0.0,0.0,50,0.00,CLR,,0.00,WeatherDisplay:10.37,2013-09-03 06:42:00,
2013-09-03 01:47:00,71.1,52.0,29.93,NNE,21,0.0,2.3,51,0.00,CLR,,0.00,WeatherDisplay:10.37,2013-09-03 06:47:00,
2013-09-03 01:52:00,71.1,52.0,29.93,NNE,15,0.0,0.0,51,0.00,CLR,,0.00,WeatherDisplay:10.37,2013-09-03 06:52:00,
2013-09-03 01:57:00,70.9,51.8,29.93,North,6,0.0,0.0,51,0.00,CLR,,0.00,WeatherDisplay:10.37,2013-09-03 06:57:00,
2013-09-03 02:02:00,71.1,52.0,29.93,North,6,0.0,0.0,51,0.00,CLR,,0.00,WeatherDisplay:10.37,2013-09-03 07:02:00,
2013-09-03 02:07:00,71.1,52.0,29.93,North,6,0.0,0.0,51,0.00,CLR,,0.00,WeatherDisplay:10.37,2013-09-03 07:07:00,
2013-09-03 02:12:00,71.1,52.0,29.93,North,3,0.0,0.0,51,0.00,CLR,,0.00,WeatherDisplay:10.37,2013-09-03 07:12:00,
2013-09-03 02:17:00,70.9,51.8,29.93,North,3,0.0,0.0,51,0.00,CLR,,0.00,WeatherDisplay:10.37,2013-09-03 07:17:00,
2013-09-03 02:23:00,70.9,52.4,29.93,North,3,0.0,0.0,52,0.00,CLR,,0.00,WeatherDisplay:10.37,2013-09-03 07:23:00,
2013-09-03 02:28:00,70.9,52.4,29.93,North,3,0.0,0.0,52,0.00,CLR,,0.00,WeatherDisplay:10.37,2013-09-03 07:28:00,
2013-09-03 02:33:00,70.7,52.7,29.93,North,3,0.0,0.0,53,0.00,CLR,,0.00,WeatherDisplay:10.37,2013-09-03 07:33:00,
2013-09-03 02:38:00,70.7,52.7,29.93,North,3,0.0,0.0,53,0.00,CLR,,0.00,WeatherDisplay:10.37,2013-09-03 07:38:00,
2013-09-03 02:43:00,70.5,52.6,29.93,North,3,0.0,0.0,53,0.00,CLR,,0.00,WeatherDisplay:10.37,2013-09-03 07:43:00,
2013-09-03 02:48:00,70.3,52.4,29.93,North,3,0.0,0.0,53,0.00,CLR,,0.00,WeatherDisplay:10.37,2013-09-03 07:48:00,
2013-09-03 02:53:00,70.2,52.2,29.93,North,3,0.0,0.0,53,0.00,CLR,,0.00,WeatherDisplay:10.37,2013-09-03 07:53:00,
2013-09-03 02:58:00,70.2,52.7,29.93,North,3,0.0,0.0,54,0.00,CLR,,0.00,WeatherDisplay:10.37,2013-09-03 07:58:00,
2013-09-03 03:03:00,70.2,52.7,29.93,North,3,0.0,0.0,54,0.00,CLR,,0.00,WeatherDisplay:10.37,2013-09-03 08:03:00,
2013-09-03 03:08:00,70.2,52.7,29.93,North,3,0.0,0.0,54,0.00,CLR,,0.00,WeatherDisplay:10.37,2013-09-03 08:08:00,
2013-09-03 03:13:00,70.2,52.2,29.93,North,3,0.0,0.0,53,0.00,CLR,,0.00,WeatherDisplay:10.37,2013-09-03 08:13:00,
2013-09-03 03:18:00,70.2,52.2,29.96,North,3,0.0,0.0,53,0.00,CLR,,0.00,WeatherDisplay:10.37,2013-09-03 08:18:00,
2013-09-03 03:23:00,70.2,52.2,29.96,North,3,0.0,0.0,53,0.00,CLR,,0.00,WeatherDisplay:10.37,2013-09-03 08:23:00,
2013-09-03 03:28:00,70.2,52.2,29.96,North,3,0.0,0.0,53,0.00,CLR,,0.00,WeatherDisplay:10.37,2013-09-03 08:28:00,
2013-09-03 03:33:00,70.0,51.5,29.96,North,3,0.0,0.0,52,0.00,CLR,,0.00,WeatherDisplay:10.37,2013-09-03 08:33:00,
2013-09-03 03:38:00,70.0,51.5,29.96,North,3,0.0,0.0,52,0.00,CLR,,0.00,WeatherDisplay:10.37,2013-09-03 08:38:00,
2013-09-03 03:43:00,70.0,51.5,29.96,North,3,0.0,0.0,52,0.00,CLR,,0.00,WeatherDisplay:10.37,2013-09-03 08:43:00,
2013-09-03 03:48:00,70.0,51.0,29.96,North,3,0.0,0.0,51,0.00,CLR,,0.00,WeatherDisplay:10.37,2013-09-03 08:48:00,
2013-09-03 03:53:00,70.2,51.2,29.96,North,3,0.0,0.0,51,0.00,CLR,,0.00,WeatherDisplay:10.37,2013-09-03 08:53:00,
2013-09-03 03:58:00,70.2,51.2,29.96,North,3,0.0,0.0,51,0.00,CLR,,0.00,WeatherDisplay:10.37,2013-09-03 08:58:00,
2013-09-03 04:03:00,70.2,50.6,29.96,North,3,0.0,0.0,50,0.00,CLR,,0.00,WeatherDisplay:10.37,2013-09-03 09:03:00,
2013-09-03 04:08:00,70.2,50.6,29.96,North,3,0.0,0.0,50,0.00,CLR,,0.00,WeatherDisplay:10.37,2013-09-03 09:08:00,
2013-09-03 04:13:00,70.2,50.6,29.96,North,3,0.0,0.0,50,0.00,CLR,,0.00,WeatherDisplay:10.37,2013-09-03 09:13:00,
2013-09-03 04:18:00,70.2,50.6,29.96,NNE,12,0.0,0.0,50,0.00,CLR,,0.00,WeatherDisplay:10.37,2013-09-03 09:18:00,
2013-09-03 04:23:00,70.2,50.6,29.96,NNE,12,0.0,0.0,50,0.00,CLR,,0.00,WeatherDisplay:10.37,2013-09-03 09:23:00,
2013-09-03 04:28:00,70.0,50.5,29.96,NNE,12,0.0,0.0,50,0.00,CLR,,0.00,WeatherDisplay:10.37,2013-09-03 09:28:00,
2013-09-03 04:33:00,70.0,50.5,29.96,North,11,2.2,3.5,50,0.00,CLR,,0.00,WeatherDisplay:10.37,2013-09-03 09:33:00,
2013-09-03 04:38:00,70.0,50.5,29.96,NNE,21,0.0,3.1,50,0.00,CLR,,0.00,WeatherDisplay:10.37,2013-09-03 09:38:00,
2013-09-03 04:43:00,70.0,50.5,29.96,NNE,14,2.2,2.3,50,0.00,CLR,,0.00,WeatherDisplay:10.37,2013-09-03 09:43:00,
2013-09-03 04:48:00,69.8,50.3,29.96,NNE,20,0.0,0.0,50,0.00,CLR,,0.00,WeatherDisplay:10.37,2013-09-03 09:48:00,
2013-09-03 04:53:00,69.8,50.3,29.96,NNE,21,0.0,0.0,50,0.00,CLR,,0.00,WeatherDisplay:10.37,2013-09-03 09:53:00,
2013-09-03 04:58:00,69.8,50.3,29.96,NNE,19,0.0,2.3,50,0.00,CLR,,0.00,WeatherDisplay:10.37,2013-09-03 09:58:00,
2013-09-03 05:03:00,69.8,50.3,29.96,NNE,15,0.0,2.3,50,0.00,CLR,,0.00,WeatherDisplay:10.37,2013-09-03 10:03:00,
2013-09-03 05:08:00,69.8,50.3,29.96,NNE,23,2.2,2.3,50,0.00,CLR,,0.00,WeatherDisplay:10.37,2013-09-03 10:08:00,
2013-09-03 05:13:00,69.6,50.2,29.96,North,9,0.0,3.5,50,0.00,CLR,,0.00,WeatherDisplay:10.37,2013-09-03 10:13:00,
2013-09-03 05:18:00,69.6,50.2,29.96,NNE,30,0.0,0.0,50,0.00,CLR,,0.00,WeatherDisplay:10.37,2013-09-03 10:18:00,
2013-09-03 05:23:00,69.6,50.2,29.96,NNE,31,0.0,0.0,50,0.00,CLR,,0.00,WeatherDisplay:10.37,2013-09-03 10:23:00,
2013-09-03 05:28:00,69.4,50.0,29.96,NNE,31,0.0,0.0,50,0.00,CLR,,0.00,WeatherDisplay:10.37,2013-09-03 10:28:00,
2013-09-03 05:33:00,69.4,50.0,29.96,NNE,15,0.0,0.0,50,0.00,CLR,,0.00,WeatherDisplay:10.37,2013-09-03 10:33:00,
2013-09-03 05:38:00,69.4,50.0,29.96,NNE,15,0.0,0.0,50,0.00,CLR,,0.00,WeatherDisplay:10.37,2013-09-03 10:38:00,
2013-09-03 05:43:00,69.3,49.8,29.96,North,357,0.0,0.0,50,0.00,CLR,,0.00,WeatherDisplay:10.37,2013-09-03 10:43:00,
2013-09-03 05:48:00,69.3,49.8,29.96,North,353,0.0,0.0,50,0.00,CLR,,0.00,WeatherDisplay:10.37,2013-09-03 10:48:00,
2013-09-03 05:53:00,69.1,49.7,29.96,North,0,0.0,0.0,50,0.00,CLR,,0.00,WeatherDisplay:10.37,2013-09-03 10:53:00,
2013-09-03 05:58:00,69.1,49.7,29.96,North,357,0.0,0.0,50,0.00,CLR,,0.00,WeatherDisplay:10.37,2013-09-03 10:58:00,
2013-09-03 06:03:00,69.1,49.7,29.96,North,357,0.0,0.0,50,0.00,CLR,,0.00,WeatherDisplay:10.37,2013-09-03 11:03:00,
2013-09-03 06:08:00,68.9,49.5,29.96,North,3,0.0,0.0,50,0.00,CLR,,0.00,WeatherDisplay:10.37,2013-09-03 11:08:00,
2013-09-03 06:13:00,68.9,49.5,29.96,NNE,17,0.0,2.3,50,0.00,CLR,,0.00,WeatherDisplay:10.37,2013-09-03 11:13:00,
2013-09-03 06:18:00,68.7,49.3,29.96,North,7,0.0,0.0,50,0.00,CLR,,0.00,WeatherDisplay:10.37,2013-09-03 11:18:00,
2013-09-03 06:23:00,68.7,49.9,29.96,North,7,0.0,0.0,51,0.00,CLR,,0.00,WeatherDisplay:10.37,2013-09-03 11:23:00,
2013-09-03 06:28:00,68.5,49.7,29.96,North,0,0.0,0.0,51,0.00,CLR,,0.00,WeatherDisplay:10.37,2013-09-03 11:28:00,
2013-09-03 06:33:00,68.5,49.7,29.99,North,0,0.0,0.0,51,0.00,CLR,,0.00,WeatherDisplay:10.37,2013-09-03 11:33:00,
2013-09-03 06:38:00,68.5,49.7,29.99,North,357,0.0,0.0,51,0.00,CLR,,0.00,WeatherDisplay:10.37,2013-09-03 11:38:00,
2013-09-03 06:43:00,68.5,50.2,29.99,North,357,0.0,0.0,52,0.00,CLR,,0.00,WeatherDisplay:10.37,2013-09-03 11:43:00,
2013-09-03 06:48:00,68.4,50.0,29.96,North,0,0.0,0.0,52,0.00,CLR,,0.00,WeatherDisplay:10.37,2013-09-03 11:48:00,
2013-09-03 06:53:00,68.2,49.9,29.96,North,0,0.0,2.3,52,0.00,CLR,,0.00,WeatherDisplay:10.37,2013-09-03 11:53:00,
2013-09-03 06:58:00,68.0,49.7,29.96,North,0,0.0,0.0,52,0.00,CLR,,0.00,WeatherDisplay:10.37,2013-09-03 11:58:00,
2013-09-03 07:03:00,68.0,50.2,29.99,North,357,0.0,0.0,53,0.00,CLR,,0.00,WeatherDisplay:10.37,2013-09-03 12:03:00,
2013-09-03 07:08:00,68.0,50.7,29.99,North,357,0.0,0.0,54,0.00,CLR,,0.00,WeatherDisplay:10.37,2013-09-03 12:08:00,
2013-09-03 07:13:00,68.2,50.9,29.99,North,357,0.0,0.0,54,0.00,CLR,,0.00,WeatherDisplay:10.37,2013-09-03 12:13:00,
2013-09-03 07:18:00,68.2,50.9,29.99,NNE,30,2.2,3.5,54,0.00,CLR,,0.00,WeatherDisplay:10.37,2013-09-03 12:18:00,
2013-09-03 07:23:00,68.2,50.9,29.99,North,3,0.0,0.0,54,0.00,CLR,,0.00,WeatherDisplay:10.37,2013-09-03 12:23:00,
2013-09-03 07:28:00,68.4,50.6,29.99,NNE,29,2.2,3.5,53,0.00,CLR,,0.00,WeatherDisplay:10.37,2013-09-03 12:28:00,
2013-09-03 07:33:00,68.5,50.7,29.99,North,10,0.0,2.3,53,0.00,CLR,,0.00,WeatherDisplay:10.37,2013-09-03 12:33:00,
2013-09-03 07:38:00,68.7,50.4,29.99,NNE,16,0.0,2.3,52,0.00,CLR,,0.00,WeatherDisplay:10.37,2013-09-03 12:38:00,
2013-09-03 07:43:00,68.7,50.4,29.99,NNE,18,2.2,3.5,52,0.00,CLR,,0.00,WeatherDisplay:10.37,2013-09-03 12:43:00,
2013-09-03 07:48:00,68.9,50.5,29.99,NNE,18,0.0,0.0,52,0.00,CLR,,0.00,WeatherDisplay:10.37,2013-09-03 12:48:00,
2013-09-03 07:53:00,69.1,50.2,29.99,North,11,0.0,0.0,51,0.00,CLR,,0.00,WeatherDisplay:10.37,2013-09-03 12:53:00,
2013-09-03 07:58:00,69.3,50.4,29.99,NNE,13,0.0,2.7,51,0.00,CLR,,0.00,WeatherDisplay:10.37,2013-09-03 12:58:00,
2013-09-03 08:03:00,69.4,50.5,29.99,NNE,13,0.0,0.0,51,0.00,CLR,,0.00,WeatherDisplay:10.37,2013-09-03 13:03:00,
2013-09-03 08:08:00,69.6,50.7,29.99,NNE,12,0.0,0.0,51,0.00,CLR,,0.00,WeatherDisplay:10.37,2013-09-03 13:08:00,
2013-09-03 08:13:00,69.8,50.3,29.99,North,357,0.0,0.0,50,0.00,CLR,,0.00,WeatherDisplay:10.37,2013-09-03 13:13:00,
2013-09-03 08:18:00,70.0,49.9,30.02,North,0,0.0,2.3,49,0.00,CLR,,0.00,WeatherDisplay:10.37,2013-09-03 13:18:00,
2013-09-03 08:23:00,70.2,50.1,30.02,NNW,334,0.0,3.5,49,0.00,CLR,,0.00,WeatherDisplay:10.37,2013-09-03 13:23:00,
2013-09-03 08:28:00,70.3,50.3,30.02,North,3,2.2,3.5,49,0.00,CLR,,0.00,WeatherDisplay:10.37,2013-09-03 13:28:00,
2013-09-03 08:33:00,70.5,50.4,30.02,NNE,23,2.2,3.5,49,0.00,CLR,,0.00,WeatherDisplay:10.37,2013-09-03 13:33:00,
2013-09-03 08:38:00,70.7,50.6,30.02,NNE,23,0.0,2.3,49,0.00,CLR,,0.00,WeatherDisplay:10.37,2013-09-03 13:38:00,
2013-09-03 08:43:00,70.9,50.8,30.02,NNE,28,2.2,3.5,49,0.00,CLR,,0.00,WeatherDisplay:10.37,2013-09-03 13:43:00,
2013-09-03 08:48:00,71.1,50.4,30.02,ENE,70,0.0,3.5,48,0.00,CLR,,0.00,WeatherDisplay:10.37,2013-09-03 13:48:00,
2013-09-03 08:53:00,71.2,50.5,30.02,North,357,0.0,3.5,48,0.00,CLR,,0.00,WeatherDisplay:10.37,2013-09-03 13:53:00,
2013-09-03 08:58:00,71.6,50.9,30.02,NE,35,2.2,2.7,48,0.00,CLR,,0.00,WeatherDisplay:10.37,2013-09-03 13:58:00,
2013-09-03 09:03:00,71.8,51.0,30.02,NNE,12,2.2,3.5,48,0.00,CLR,,0.00,WeatherDisplay:10.37,2013-09-03 14:03:00,
2013-09-03 09:08:00,72.0,51.2,30.02,North,353,0.0,0.0,48,0.00,CLR,,0.00,WeatherDisplay:10.37,2013-09-03 14:08:00,
2013-09-03 09:13:00,72.3,51.5,30.02,North,0,0.0,0.0,48,0.00,CLR,,0.00,WeatherDisplay:10.37,2013-09-03 14:13:00,
2013-09-03 09:18:00,72.7,51.9,30.02,NNE,20,2.7,3.5,48,0.00,CLR,,0.00,WeatherDisplay:10.37,2013-09-03 14:18:00,
2013-09-03 09:23:00,72.9,52.0,30.02,NNE,30,2.7,3.5,48,0.00,CLR,,0.00,WeatherDisplay:10.37,2013-09-03 14:23:00,
2013-09-03 09:28:00,73.0,51.6,30.02,NNE,14,2.2,2.3,47,0.00,CLR,,0.00,WeatherDisplay:10.37,2013-09-03 14:28:00,
2013-09-03 09:33:00,73.4,51.9,30.02,NE,48,2.2,3.5,47,0.00,CLR,,0.00,WeatherDisplay:10.37,2013-09-03 14:33:00,
2013-09-03 09:38:00,73.4,51.9,30.02,North,8,2.2,2.3,47,0.00,CLR,,0.00,WeatherDisplay:10.37,2013-09-03 14:38:00,
2013-09-03 09:43:00,73.8,52.3,30.02,NNE,12,2.7,3.5,47,0.00,CLR,,0.00,WeatherDisplay:10.37,2013-09-03 14:43:00,
2013-09-03 09:48:00,73.9,52.4,30.02,NNE,16,2.2,5.8,47,0.00,CLR,,0.00,WeatherDisplay:10.37,2013-09-03 14:48:00,
2013-09-03 09:53:00,74.3,52.8,30.02,NNW,336,2.7,3.5,47,0.00,CLR,,0.00,WeatherDisplay:10.37,2013-09-03 14:53:00,
2013-09-03 09:58:00,74.5,51.1,30.02,North,3,2.7,3.5,44,0.00,CLR,,0.00,WeatherDisplay:10.37,2013-09-03 14:58:00,
2013-09-03 10:03:00,74.8,51.5,30.02,NNE,17,3.1,3.5,44,0.00,CLR,,0.00,WeatherDisplay:10.37,2013-09-03 15:03:00,
2013-09-03 10:08:00,74.8,51.5,30.02,ENE,59,2.7,3.5,44,0.00,CLR,,0.00,WeatherDisplay:10.37,2013-09-03 15:08:00,
2013-09-03 10:13:00,75.2,51.8,30.02,NNE,19,2.7,3.5,44,0.00,CLR,,0.00,WeatherDisplay:10.37,2013-09-03 15:13:00,
2013-09-03 10:18:00,75.6,52.1,30.02,NNE,32,0.0,0.0,44,0.00,CLR,,0.00,WeatherDisplay:10.37,2013-09-03 15:18:00,
2013-09-03 10:23:00,75.9,52.4,30.02,NNE,33,0.0,2.3,44,0.00,CLR,,0.00,WeatherDisplay:10.37,2013-09-03 15:23:00,
2013-09-03 10:28:00,76.3,52.8,30.02,NE,56,2.7,3.5,44,0.00,CLR,,0.00,WeatherDisplay:10.37,2013-09-03 15:28:00,
2013-09-03 10:33:00,76.6,53.1,30.02,NE,38,0.0,0.0,44,0.00,CLR,,0.00,WeatherDisplay:10.37,2013-09-03 15:33:00,
2013-09-03 10:38:00,76.8,53.3,30.02,North,353,0.0,3.5,44,0.00,CLR,,0.00,WeatherDisplay:10.37,2013-09-03 15:38:00,
2013-09-03 10:43:00,77.4,53.7,30.02,North,11,0.0,3.5,44,0.00,CLR,,0.00,WeatherDisplay:10.37,2013-09-03 15:43:00,
2013-09-03 10:48:00,77.5,53.9,30.02,NNE,30,2.2,3.5,44,0.00,CLR,,0.00,WeatherDisplay:10.37,2013-09-03 15:48:00,
2013-09-03 10:53:00,78.1,52.5,30.02,NNE,15,2.2,3.5,41,0.00,CLR,,0.00,WeatherDisplay:10.37,2013-09-03 15:53:00,
2013-09-03 10:58:00,78.4,52.8,30.02,North,1,0.0,4.0,41,0.00,CLR,,0.00,WeatherDisplay:10.37,2013-09-03 15:58:00,
2013-09-03 11:03:00,78.8,53.1,30.02,NE,50,0.0,0.0,41,0.00,CLR,,0.00,WeatherDisplay:10.37,2013-09-03 16:03:00,
2013-09-03 11:08:00,79.3,53.6,30.02,NNW,348,0.0,3.5,41,0.00,CLR,,0.00,WeatherDisplay:10.37,2013-09-03 16:08:00,
2013-09-03 11:13:00,79.9,54.1,30.02,ENE,59,0.0,4.0,41,0.00,CLR,,0.00,WeatherDisplay:10.37,2013-09-03 16:13:00,
2013-09-03 11:18:00,80.6,54.0,30.02,NNE,18,0.0,2.3,40,0.00,CLR,,0.00,WeatherDisplay:10.37,2013-09-03 16:18:00,
2013-09-03 11:23:00,81.0,54.4,30.02,North,0,2.2,2.3,40,0.00,CLR,,0.00,WeatherDisplay:10.37,2013-09-03 16:23:00,
2013-09-03 11:28:00,81.5,54.8,30.02,ENE,65,0.0,2.3,40,0.00,CLR,,0.00,WeatherDisplay:10.37,2013-09-03 16:28:00,
2013-09-03 11:33:00,81.5,54.8,30.02,NNE,21,3.1,4.6,40,0.00,CLR,,0.00,WeatherDisplay:10.37,2013-09-03 16:33:00,
2013-09-03 11:38:00,81.5,54.8,30.02,North,9,2.2,2.3,40,0.00,CLR,,0.00,WeatherDisplay:10.37,2013-09-03 16:38:00,
2013-09-03 11:43:00,81.9,55.2,30.02,NNE,25,2.2,2.3,40,0.00,CLR,,0.00,WeatherDisplay:10.37,2013-09-03 16:43:00,
2013-09-03 11:48:00,82.0,55.3,30.02,NNE,12,2.7,3.5,40,0.00,CLR,,0.00,WeatherDisplay:10.37,2013-09-03 16:48:00,
2013-09-03 11:53:00,82.2,55.5,30.02,ENE,59,2.2,3.5,40,0.00,CLR,,0.00,WeatherDisplay:10.37,2013-09-03 16:53:00,
2013-09-03 11:58:00,82.4,55.7,30.02,ENE,63,2.7,3.5,40,0.00,CLR,,0.00,WeatherDisplay:10.37,2013-09-03 16:58:00,
2013-09-03 12:03:00,82.8,56.0,30.02,North,3,0.0,4.0,40,0.00,CLR,,0.00,WeatherDisplay:10.37,2013-09-03 17:03:00,
2013-09-03 12:08:00,82.8,56.0,30.02,NNE,17,3.1,5.8,40,0.00,CLR,,0.00,WeatherDisplay:10.37,2013-09-03 17:08:00,
2013-09-03 12:13:00,82.8,56.0,30.02,NNE,21,0.0,2.7,40,0.00,CLR,,0.00,WeatherDisplay:10.37,2013-09-03 17:13:00,
2013-09-03 12:18:00,82.8,56.0,30.02,NE,48,0.0,0.0,40,0.00,CLR,,0.00,WeatherDisplay:10.37,2013-09-03 17:18:00,
2013-09-03 12:23:00,82.8,56.0,30.02,NNE,14,0.0,0.0,40,0.00,CLR,,0.00,WeatherDisplay:10.37,2013-09-03 17:23:00,
2013-09-03 12:28:00,83.1,56.3,30.02,SW,233,0.0,3.5,40,0.00,CLR,,0.00,WeatherDisplay:10.37,2013-09-03 17:28:00,
2013-09-03 12:33:00,83.1,56.3,30.02,North,9,3.1,4.0,40,0.00,CLR,,0.00,WeatherDisplay:10.37,2013-09-03 17:33:00,
2013-09-03 12:38:00,83.1,56.3,30.02,North,357,3.1,3.5,40,0.00,CLR,,0.00,WeatherDisplay:10.37,2013-09-03 17:38:00,
2013-09-03 12:43:00,83.1,56.3,30.02,NNW,337,0.0,3.1,40,0.00,CLR,,0.00,WeatherDisplay:10.37,2013-09-03 17:43:00,
2013-09-03 12:48:00,83.3,56.5,29.99,North,357,3.1,4.6,40,0.00,CLR,,0.00,WeatherDisplay:10.37,2013-09-03 17:48:00,
2013-09-03 12:53:00,83.3,56.5,29.99,NNE,23,3.6,5.8,40,0.00,CLR,,0.00,WeatherDisplay:10.37,2013-09-03 17:53:00,
2013-09-03 12:58:00,83.3,56.5,29.99,North,3,2.7,3.5,40,0.00,CLR,,0.00,WeatherDisplay:10.37,2013-09-03 17:58:00,
2013-09-03 13:03:00,83.1,56.3,29.99,NNE,25,2.2,3.5,40,0.00,CLR,,0.00,WeatherDisplay:10.37,2013-09-03 18:03:00,
2013-09-03 13:08:00,83.1,56.3,29.99,North,3,0.0,0.0,40,0.00,CLR,,0.00,WeatherDisplay:10.37,2013-09-03 18:08:00,
2013-09-03 13:13:00,83.3,56.5,29.99,North,353,0.0,3.5,40,0.00,CLR,,0.00,WeatherDisplay:10.37,2013-09-03 18:13:00,
2013-09-03 13:18:00,83.5,56.6,29.99,NNE,14,3.1,5.8,40,0.00,CLR,,0.00,WeatherDisplay:10.37,2013-09-03 18:18:00,
2013-09-03 13:23:00,83.7,56.8,29.99,NNE,23,0.0,0.0,40,0.00,CLR,,0.00,WeatherDisplay:10.37,2013-09-03 18:23:00,
2013-09-03 13:28:00,84.0,57.1,29.99,NNW,327,0.0,0.0,40,0.00,CLR,,0.00,WeatherDisplay:10.37,2013-09-03 18:28:00,
2013-09-03 13:33:00,84.4,56.7,29.99,NNE,14,2.7,3.5,39,0.00,CLR,,0.00,WeatherDisplay:10.37,2013-09-03 18:33:00,
2013-09-03 13:38:00,84.6,56.9,29.99,WNW,297,0.0,5.8,39,0.00,CLR,,0.00,WeatherDisplay:10.37,2013-09-03 18:38:00,
2013-09-03 13:43:00,84.6,56.9,29.99,ESE,116,3.1,3.5,39,0.00,CLR,,0.00,WeatherDisplay:10.37,2013-09-03 18:43:00,
2013-09-03 13:48:00,84.6,56.9,29.99,North,9,0.0,3.5,39,0.00,CLR,,0.00,WeatherDisplay:10.37,2013-09-03 18:48:00,
2013-09-03 13:53:00,84.7,57.0,29.99,West,265,2.2,3.5,39,0.00,CLR,,0.00,WeatherDisplay:10.37,2013-09-03 18:53:00,
2013-09-03 13:58:00,84.9,57.2,29.99,NW,305,4.0,5.8,39,0.00,CLR,,0.00,WeatherDisplay:10.37,2013-09-03 18:58:00,
2013-09-03 14:03:00,84.9,57.2,29.99,North,6,3.1,4.0,39,0.00,CLR,,0.00,WeatherDisplay:10.37,2013-09-03 19:03:00,
2013-09-03 14:08:00,84.6,56.9,29.99,North,353,3.6,3.6,39,0.00,CLR,,0.00,WeatherDisplay:10.37,2013-09-03 19:08:00,
2013-09-03 14:13:00,84.6,56.9,29.99,NNE,18,2.7,3.5,39,0.00,CLR,,0.00,WeatherDisplay:10.37,2013-09-03 19:13:00,
2013-09-03 14:18:00,84.6,56.9,29.99,NNE,13,3.1,3.5,39,0.00,CLR,,0.00,WeatherDisplay:10.37,2013-09-03 19:18:00,
2013-09-03 14:23:00,84.6,56.9,29.99,North,357,3.1,3.5,39,0.00,CLR,,0.00,WeatherDisplay:10.37,2013-09-03 19:23:00,
2013-09-03 14:28:00,84.4,56.7,29.99,North,0,3.6,3.6,39,0.00,CLR,,0.00,WeatherDisplay:10.37,2013-09-03 19:28:00,
2013-09-03 14:33:00,84.6,56.9,29.99,NNW,336,2.2,3.5,39,0.00,CLR,,0.00,WeatherDisplay:10.37,2013-09-03 19:33:00,
2013-09-03 14:38:00,84.7,57.0,29.99,NE,39,4.0,5.8,39,0.00,CLR,,0.00,WeatherDisplay:10.37,2013-09-03 19:38:00,
2013-09-03 14:43:00,84.6,56.9,29.99,North,2,3.1,3.5,39,0.00,CLR,,0.00,WeatherDisplay:10.37,2013-09-03 19:43:00,
2013-09-03 14:48:00,84.7,57.0,29.96,NNE,16,0.0,3.5,39,0.00,CLR,,0.00,WeatherDisplay:10.37,2013-09-03 19:48:00,
2013-09-03 14:53:00,84.7,57.0,29.96,North,350,0.0,0.0,39,0.00,CLR,,0.00,WeatherDisplay:10.37,2013-09-03 19:53:00,
2013-09-03 14:58:00,84.7,57.0,29.96,North,350,2.7,4.6,39,0.00,CLR,,0.00,WeatherDisplay:10.37,2013-09-03 19:58:00,
2013-09-03 15:03:00,84.6,56.9,29.96,North,5,3.6,3.6,39,0.00,CLR,,0.00,WeatherDisplay:10.37,2013-09-03 20:03:00,
2013-09-03 15:08:00,84.7,57.0,29.96,North,353,0.0,2.3,39,0.00,CLR,,0.00,WeatherDisplay:10.37,2013-09-03 20:08:00,
2013-09-03 15:13:00,84.9,57.2,29.96,West,260,0.0,3.5,39,0.00,CLR,,0.00,WeatherDisplay:10.37,2013-09-03 20:13:00,
2013-09-03 15:18:00,85.1,57.4,29.96,NNE,14,2.2,3.5,39,0.00,CLR,,0.00,WeatherDisplay:10.37,2013-09-03 20:18:00,
2013-09-03 15:23:00,84.7,57.0,29.96,North,11,0.0,0.0,39,0.00,CLR,,0.00,WeatherDisplay:10.37,2013-09-03 20:23:00,
2013-09-03 15:28:00,84.6,56.9,29.96,North,0,0.0,0.0,39,0.00,CLR,,0.00,WeatherDisplay:10.37,2013-09-03 20:28:00,
2013-09-03 15:33:00,84.7,57.0,29.96,West,264,0.0,3.5,39,0.00,CLR,,0.00,WeatherDisplay:10.37,2013-09-03 20:33:00,
2013-09-03 15:38:00,84.7,57.0,29.96,NNE,17,3.1,5.8,39,0.00,CLR,,0.00,WeatherDisplay:10.37,2013-09-03 20:38:00,
2013-09-03 15:43:00,84.7,57.0,29.96,North,4,0.0,0.0,39,0.00,CLR,,0.00,WeatherDisplay:10.37,2013-09-03 20:43:00,
2013-09-03 15:48:00,84.7,57.0,29.96,SW,222,2.2,2.3,39,0.00,CLR,,0.00,WeatherDisplay:10.37,2013-09-03 20:48:00,
2013-09-03 15:53:00,84.7,57.0,29.96,West,271,3.1,4.6,39,0.00,CLR,,0.00,WeatherDisplay:10.37,2013-09-03 20:53:00,
2013-09-03 15:58:00,84.6,56.9,29.96,ENE,76,2.2,3.5,39,0.00,CLR,,0.00,WeatherDisplay:10.37,2013-09-03 20:58:00,
2013-09-03 16:03:00,84.6,56.9,29.96,ENE,60,3.1,3.5,39,0.00,CLR,,0.00,WeatherDisplay:10.37,2013-09-03 21:03:00,
2013-09-03 16:08:00,84.4,56.7,29.96,North,353,3.1,3.5,39,0.00,CLR,,0.00,WeatherDisplay:10.37,2013-09-03 21:08:00,
2013-09-03 16:13:00,84.2,56.6,29.96,North,11,2.7,3.5,39,0.00,CLR,,0.00,WeatherDisplay:10.37,2013-09-03 21:13:00,
2013-09-03 16:18:00,84.0,57.1,29.96,NNE,17,0.0,0.0,40,0.00,CLR,,0.00,WeatherDisplay:10.37,2013-09-03 21:18:00,
2013-09-03 16:23:00,84.0,57.1,29.96,NNE,16,3.6,4.6,40,0.00,CLR,,0.00,WeatherDisplay:10.37,2013-09-03 21:23:00,
2013-09-03 16:28:00,83.8,56.9,29.96,ENE,70,3.1,3.5,40,0.00,CLR,,0.00,WeatherDisplay:10.37,2013-09-03 21:28:00,
2013-09-03 16:33:00,83.8,56.9,29.93,ENE,68,0.0,0.0,40,0.00,CLR,,0.00,WeatherDisplay:10.37,2013-09-03 21:33:00,
2013-09-03 16:38:00,83.7,56.8,29.93,North,7,0.0,0.0,40,0.00,CLR,,0.00,WeatherDisplay:10.37,2013-09-03 21:38:00,
2013-09-03 16:43:00,83.7,56.8,29.93,North,357,2.7,2.7,40,0.00,CLR,,0.00,WeatherDisplay:10.37,2013-09-03 21:43:00,
2013-09-03 16:48:00,83.7,56.8,29.96,NW,316,0.0,0.0,40,0.00,CLR,,0.00,WeatherDisplay:10.37,2013-09-03 21:48:00,
2013-09-03 16:53:00,83.5,56.6,29.96,North,6,0.0,2.3,40,0.00,CLR,,0.00,WeatherDisplay:10.37,2013-09-03 21:53:00,
2013-09-03 16:58:00,83.7,56.8,29.96,NNW,332,2.2,3.5,40,0.00,CLR,,0.00,WeatherDisplay:10.37,2013-09-03 21:58:00,
2013-09-03 17:03:00,83.5,56.6,29.96,North,5,0.0,0.0,40,0.00,CLR,,0.00,WeatherDisplay:10.37,2013-09-03 22:03:00,
2013-09-03 17:08:00,83.3,56.5,29.96,NNE,12,3.1,3.5,40,0.00,CLR,,0.00,WeatherDisplay:10.37,2013-09-03 22:08:00,
2013-09-03 17:13:00,83.1,56.3,29.96,North,7,0.0,0.0,40,0.00,CLR,,0.00,WeatherDisplay:10.37,2013-09-03 22:13:00,
2013-09-03 17:18:00,83.1,56.3,29.93,NNE,20,0.0,0.0,40,0.00,CLR,,0.00,WeatherDisplay:10.37,2013-09-03 22:18:00,
2013-09-03 17:23:00,82.9,56.1,29.93,NNE,16,2.2,2.3,40,0.00,CLR,,0.00,WeatherDisplay:10.37,2013-09-03 22:23:00,
2013-09-03 17:28:00,82.9,56.1,29.93,North,7,0.0,0.0,40,0.00,CLR,,0.00,WeatherDisplay:10.37,2013-09-03 22:28:00,
2013-09-03 17:33:00,82.8,56.0,29.96,North,9,0.0,2.3,40,0.00,CLR,,0.00,WeatherDisplay:10.37,2013-09-03 22:33:00,
2013-09-03 17:38:00,82.8,56.0,29.96,NNE,15,0.0,0.0,40,0.00,CLR,,0.00,WeatherDisplay:10.37,2013-09-03 22:38:00,
2013-09-03 17:43:00,82.6,55.8,29.96,NNE,15,0.0,0.0,40,0.00,CLR,,0.00,WeatherDisplay:10.37,2013-09-03 22:43:00,
2013-09-03 17:48:00,82.4,55.7,29.93,NNE,16,0.0,0.0,40,0.00,CLR,,0.00,WeatherDisplay:10.37,2013-09-03 22:48:00,
2013-09-03 17:53:00,82.4,55.7,29.93,North,4,0.0,0.0,40,0.00,CLR,,0.00,WeatherDisplay:10.37,2013-09-03 22:53:00,
2013-09-03 17:58:00,82.2,55.5,29.93,North,10,0.0,0.0,40,0.00,CLR,,0.00,WeatherDisplay:10.37,2013-09-03 22:58:00,
2013-09-03 18:03:00,82.0,55.3,29.93,North,8,0.0,0.0,40,0.00,CLR,,0.00,WeatherDisplay:10.37,2013-09-03 23:03:00,
2013-09-03 18:08:00,81.9,55.2,29.93,North,8,0.0,0.0,40,0.00,CLR,,0.00,WeatherDisplay:10.37,2013-09-03 23:08:00,
2013-09-03 18:13:00,81.7,55.0,29.93,NE,34,0.0,0.0,40,0.00,CLR,,0.00,WeatherDisplay:10.37,2013-09-03 23:13:00,
2013-09-03 18:18:00,81.7,55.0,29.93,North,357,0.0,0.0,40,0.00,CLR,,0.00,WeatherDisplay:10.37,2013-09-03 23:18:00,
2013-09-03 18:23:00,81.5,54.8,29.93,North,0,0.0,0.0,40,0.00,CLR,,0.00,WeatherDisplay:10.37,2013-09-03 23:23:00,
2013-09-03 18:28:00,81.3,54.7,29.93,North,0,0.0,0.0,40,0.00,CLR,,0.00,WeatherDisplay:10.37,2013-09-03 23:28:00,
2013-09-03 18:33:00,81.1,54.5,29.96,North,0,0.0,0.0,40,0.00,CLR,,0.00,WeatherDisplay:10.37,2013-09-03 23:33:00,
2013-09-03 18:38:00,80.6,54.0,29.96,North,0,0.0,0.0,40,0.00,CLR,,0.00,WeatherDisplay:10.37,2013-09-03 23:38:00,
2013-09-03 18:43:00,80.1,54.2,29.96,North,0,0.0,0.0,41,0.00,CLR,,0.00,WeatherDisplay:10.37,2013-09-03 23:43:00,
2013-09-03 18:48:00,79.5,53.8,29.96,North,0,0.0,0.0,41,0.00,CLR,,0.00,WeatherDisplay:10.37,2013-09-03 23:48:00,
2013-09-03 18:53:00,79.2,53.4,29.96,North,0,0.0,0.0,41,0.00,CLR,,0.00,WeatherDisplay:10.37,2013-09-03 23:53:00,
2013-09-03 18:58:00,79.0,53.3,29.96,North,0,0.0,0.0,41,0.00,CLR,,0.00,WeatherDisplay:10.37,2013-09-03 23:58:00,
2013-09-03 19:03:00,78.4,52.8,29.96,North,0,0.0,0.0,41,0.00,CLR,,0.00,WeatherDisplay:10.37,2013-09-04 00:03:00,
2013-09-03 19:08:00,78.3,52.6,29.96,North,0,0.0,0.0,41,0.00,CLR,,0.00,WeatherDisplay:10.37,2013-09-04 00:08:00,
2013-09-03 19:13:00,78.3,52.6,29.96,North,0,0.0,0.0,41,0.00,CLR,,0.00,WeatherDisplay:10.37,2013-09-04 00:13:00,
2013-09-03 19:18:00,77.9,52.3,29.96,North,0,0.0,0.0,41,0.00,CLR,,0.00,WeatherDisplay:10.37,2013-09-04 00:18:00,
2013-09-03 19:23:00,77.5,52.0,29.96,North,0,0.0,0.0,41,0.00,CLR,,0.00,WeatherDisplay:10.37,2013-09-04 00:23:00,
2013-09-03 19:28:00,77.2,51.7,29.96,North,0,0.0,0.0,41,0.00,CLR,,0.00,WeatherDisplay:10.37,2013-09-04 00:28:00,
2013-09-03 19:33:00,77.0,51.5,29.96,North,0,0.0,0.0,41,0.00,CLR,,0.00,WeatherDisplay:10.37,2013-09-04 00:33:00,
2013-09-03 19:38:00,76.8,51.3,29.96,North,0,0.0,0.0,41,0.00,CLR,,0.00,WeatherDisplay:10.37,2013-09-04 00:38:00,
2013-09-03 19:43:00,76.5,51.0,29.96,North,0,0.0,0.0,41,0.00,CLR,,0.00,WeatherDisplay:10.37,2013-09-04 00:43:00,
2013-09-03 19:48:00,75.9,50.5,29.96,North,0,0.0,0.0,41,0.00,CLR,,0.00,WeatherDisplay:10.37,2013-09-04 00:48:00,
2013-09-03 19:53:00,75.4,50.0,29.96,North,0,0.0,0.0,41,0.00,CLR,,0.00,WeatherDisplay:10.37,2013-09-04 00:53:00,
2013-09-03 19:58:00,75.0,50.4,29.96,North,0,0.0,0.0,42,0.00,CLR,,0.00,WeatherDisplay:10.37,2013-09-04 00:58:00,
2013-09-03 20:03:00,74.8,50.2,29.96,North,0,0.0,0.0,42,0.00,CLR,,0.00,WeatherDisplay:10.37,2013-09-04 01:03:00,
2013-09-03 20:08:00,74.5,49.9,29.96,North,0,0.0,0.0,42,0.00,CLR,,0.00,WeatherDisplay:10.37,2013-09-04 01:08:00,
2013-09-03 20:13:00,74.5,49.9,29.96,North,0,0.0,0.0,42,0.00,CLR,,0.00,WeatherDisplay:10.37,2013-09-04 01:13:00,
2013-09-03 20:18:00,74.5,49.9,29.96,North,0,0.0,0.0,42,0.00,CLR,,0.00,WeatherDisplay:10.37,2013-09-04 01:18:00,
2013-09-03 20:23:00,74.3,49.7,29.96,SE,133,0.0,0.0,42,0.00,CLR,,0.00,WeatherDisplay:10.37,2013-09-04 01:23:00,
2013-09-03 20:28:00,74.1,49.6,29.96,SE,133,0.0,0.0,42,0.00,CLR,,0.00,WeatherDisplay:10.37,2013-09-04 01:28:00,
2013-09-03 20:33:00,73.9,49.4,29.96,SE,133,0.0,0.0,42,0.00,CLR,,0.00,WeatherDisplay:10.37,2013-09-04 01:33:00,
2013-09-03 20:38:00,73.6,49.1,29.96,SE,133,0.0,0.0,42,0.00,CLR,,0.00,WeatherDisplay:10.37,2013-09-04 01:38:00,
2013-09-03 20:43:00,73.6,49.1,29.96,SE,133,0.0,0.0,42,0.00,CLR,,0.00,WeatherDisplay:10.37,2013-09-04 01:43:00,
2013-09-03 20:48:00,73.4,48.9,29.96,SE,133,0.0,0.0,42,0.00,CLR,,0.00,WeatherDisplay:10.37,2013-09-04 01:48:00,
2013-09-03 20:53:00,73.4,48.9,29.96,SE,133,0.0,0.0,42,0.00,CLR,,0.00,WeatherDisplay:10.37,2013-09-04 01:53:00,
2013-09-03 20:58:00,73.2,48.7,29.96,SE,133,0.0,0.0,42,0.00,CLR,,0.00,WeatherDisplay:10.37,2013-09-04 01:58:00,
2013-09-03 21:03:00,73.0,48.6,29.99,SE,133,0.0,0.0,42,0.00,CLR,,0.00,WeatherDisplay:10.37,2013-09-04 02:03:00,
2013-09-03 21:08:00,72.7,48.3,29.99,SE,133,0.0,0.0,42,0.00,CLR,,0.00,WeatherDisplay:10.37,2013-09-04 02:08:00,
2013-09-03 21:13:00,72.5,48.1,29.99,SE,133,0.0,0.0,42,0.00,CLR,,0.00,WeatherDisplay:10.37,2013-09-04 02:13:00,
2013-09-03 21:18:00,72.1,47.8,29.99,SE,133,0.0,0.0,42,0.00,CLR,,0.00,WeatherDisplay:10.37,2013-09-04 02:18:00,
2013-09-03 21:23:00,71.8,47.4,29.99,SE,133,0.0,0.0,42,0.00,CLR,,0.00,WeatherDisplay:10.37,2013-09-04 02:23:00,
2013-09-03 21:28:00,71.4,47.7,29.99,SE,133,0.0,0.0,43,0.00,CLR,,0.00,WeatherDisplay:10.37,2013-09-04 02:28:00,
2013-09-03 21:33:00,71.1,48.6,29.99,SE,133,0.0,0.0,45,0.00,CLR,,0.00,WeatherDisplay:10.37,2013-09-04 02:33:00,
2013-09-03 21:38:00,70.9,48.5,29.99,SE,133,0.0,0.0,45,0.00,CLR,,0.00,WeatherDisplay:10.37,2013-09-04 02:38:00,
2013-09-03 21:43:00,70.7,48.3,29.99,SE,133,0.0,0.0,45,0.00,CLR,,0.00,WeatherDisplay:10.37,2013-09-04 02:43:00,
2013-09-03 21:48:00,70.7,48.3,29.99,SE,133,0.0,0.0,45,0.00,CLR,,0.00,WeatherDisplay:10.37,2013-09-04 02:48:00,
2013-09-03 21:53:00,70.5,48.1,29.99,SE,133,0.0,0.0,45,0.00,CLR,,0.00,WeatherDisplay:10.37,2013-09-04 02:53:00,
2013-09-03 21:58:00,70.3,48.0,29.99,SE,133,0.0,0.0,45,0.00,CLR,,0.00,WeatherDisplay:10.37,2013-09-04 02:58:00,
2013-09-03 22:03:00,70.0,47.7,30.02,SE,133,0.0,0.0,45,0.00,CLR,,0.00,WeatherDisplay:10.37,2013-09-04 03:03:00,
2013-09-03 22:08:00,70.0,47.7,30.02,SE,133,0.0,0.0,45,0.00,CLR,,0.00,WeatherDisplay:10.37,2013-09-04 03:08:00,
2013-09-03 22:13:00,69.8,49.2,30.02,SE,133,0.0,0.0,48,0.00,CLR,,0.00,WeatherDisplay:10.37,2013-09-04 03:13:00,
2013-09-03 22:18:00,69.4,48.9,30.02,SE,133,0.0,0.0,48,0.00,CLR,,0.00,WeatherDisplay:10.37,2013-09-04 03:18:00,
2013-09-03 22:23:00,69.3,48.7,30.02,SE,133,0.0,0.0,48,0.00,CLR,,0.00,WeatherDisplay:10.37,2013-09-04 03:23:00,
2013-09-03 22:28:00,69.1,48.6,30.02,SE,133,0.0,0.0,48,0.00,CLR,,0.00,WeatherDisplay:10.37,2013-09-04 03:28:00,
2013-09-03 22:33:00,68.7,48.2,30.02,SE,133,0.0,0.0,48,0.00,CLR,,0.00,WeatherDisplay:10.37,2013-09-04 03:33:00,
2013-09-03 22:38:00,68.9,48.4,30.02,SE,133,0.0,0.0,48,0.00,CLR,,0.00,WeatherDisplay:10.37,2013-09-04 03:38:00,
2013-09-03 22:43:00,68.9,48.9,30.02,SE,133,0.0,0.0,49,0.00,CLR,,0.00,WeatherDisplay:10.37,2013-09-04 03:43:00,
2013-09-03 22:48:00,68.9,48.9,30.02,SE,133,0.0,0.0,49,0.00,CLR,,0.00,WeatherDisplay:10.37,2013-09-04 03:48:00,
2013-09-03 22:53:00,68.9,48.9,30.02,SE,133,0.0,0.0,49,0.00,CLR,,0.00,WeatherDisplay:10.37,2013-09-04 03:53:00,
2013-09-03 22:58:00,68.5,48.6,30.02,SE,133,0.0,0.0,49,0.00,CLR,,0.00,WeatherDisplay:10.37,2013-09-04 03:58:00,
2013-09-03 23:01:00,68.5,48.6,30.02,SE,133,0.0,0.0,49,0.00,CLR,,0.00,WeatherDisplay:10.37,2013-09-04 04:01:00,
2013-09-03 23:02:00,68.5,48.6,30.02,SE,133,0.0,0.0,49,0.00,CLR,,0.00,WeatherDisplay:10.37,2013-09-04 04:02:00,
2013-09-03 23:03:00,68.5,48.6,30.02,SE,133,0.0,0.0,49,0.00,CLR,,0.00,WeatherDisplay:10.37,2013-09-04 04:03:00,
2013-09-03 23:05:00,68.7,48.8,30.02,SE,133,0.0,0.0,49,0.00,CLR,,0.00,WeatherDisplay:10.37,2013-09-04 04:05:00,
2013-09-03 23:10:00,68.7,48.8,30.02,SE,133,0.0,0.0,49,0.00,CLR,,0.00,WeatherDisplay:10.37,2013-09-04 04:10:00,
2013-09-03 23:15:00,68.7,48.8,30.02,SE,133,0.0,0.0,49,0.00,CLR,,0.00,WeatherDisplay:10.37,2013-09-04 04:15:00,
2013-09-03 23:20:00,68.4,48.5,30.02,SE,133,0.0,0.0,49,0.00,CLR,,0.00,WeatherDisplay:10.37,2013-09-04 04:20:00,
2013-09-03 23:25:00,68.2,48.3,30.02,SE,133,0.0,0.0,49,0.00,CLR,,0.00,WeatherDisplay:10.37,2013-09-04 04:25:00,
2013-09-03 23:30:00,68.0,48.1,30.02,SE,133,0.0,0.0,49,0.00,CLR,,0.00,WeatherDisplay:10.37,2013-09-04 04:30:00,
2013-09-03 23:35:00,67.6,48.3,30.02,SE,133,0.0,0.0,50,0.00,CLR,,0.00,WeatherDisplay:10.37,2013-09-04 04:35:00,
2013-09-03 23:40:00,67.5,48.2,30.02,SE,133,0.0,0.0,50,0.00,CLR,,0.00,WeatherDisplay:10.37,2013-09-04 04:40:00,
2013-09-03 23:45:00,67.5,48.2,30.02,SE,133,0.0,0.0,50,0.00,CLR,,0.00,WeatherDisplay:10.37,2013-09-04 04:45:00,
2013-09-03 23:50:00,67.1,47.8,30.02,SE,133,0.0,0.0,50,0.00,CLR,,0.00,WeatherDisplay:10.37,2013-09-04 04:50:00,
2013-09-03 23:55:00,66.7,47.5,30.02,SE,133,0.0,0.0,50,0.00,CLR,,0.00,WeatherDisplay:10.37,2013-09-04 04:55:00,